Time;durP1;ratioP1;P1;durP2;ratioP2;P2;SDS_P1;SDS_P2;PMS_P1;PMS_P2;Temp;Humidity;BMP_temperature;BMP_pressure;BME280_temperature;BME280_humidity;BME280_pressure;Samples;Min_cycle;Max_cycle;Signal;HPM_P1;HPM_P2
2021/08/19 00:01:21;;;;;;;15.35;8.68;;;;;;;21.18;61.74;101276.72;4859551;28;124812;-68
2021/08/19 00:03:48;;;;;;;13.25;8.07;;;;;;;21.16;61.74;101271.47;4864377;28;115495;-68
2021/08/19 00:06:16;;;;;;;15.05;8.40;;;;;;;21.17;62.02;101269.63;4861834;28;114417;-68
2021/08/19 00:08:43;;;;;;;15.93;8.65;;;;;;;21.17;62.00;101265.09;4870663;28;124018;-68
2021/08/19 00:11:12;;;;;;;14.70;7.80;;;;;;;21.19;61.94;101270.34;4870727;28;123383;-67
2021/08/19 00:13:39;;;;;;;12.88;8.13;;;;;;;21.17;62.03;101265.09;4868282;28;114239;-67
2021/08/19 00:16:07;;;;;;;14.27;8.27;;;;;;;21.18;62.11;101264.09;4852625;28;114084;-68
2021/08/19 00:18:36;;;;;;;14.23;8.25;;;;;;;21.17;62.10;101259.72;4867256;28;123795;-69
2021/08/19 00:21:05;;;;;;;16.45;7.88;;;;;;;21.16;62.19;101259.84;4843523;28;122906;-68
2021/08/19 00:23:35;;;;;;;15.30;8.30;;;;;;;21.14;62.30;101259.97;4853031;28;113188;-68
2021/08/19 00:26:04;;;;;;;16.38;8.30;;;;;;;21.14;62.33;101270.75;4863276;28;113843;-68
2021/08/19 00:28:32;;;;;;;12.32;7.90;;;;;;;21.14;62.34;101265.34;4860472;28;126741;-68
2021/08/19 00:31:00;;;;;;;15.88;8.25;;;;;;;21.13;62.41;101263.63;4864532;28;123310;-68
2021/08/19 00:33:28;;;;;;;14.13;8.07;;;;;;;21.12;62.40;101267.31;4861251;28;114115;-68
2021/08/19 00:35:56;;;;;;;14.00;7.97;;;;;;;21.12;62.55;101261.94;4870144;28;114095;-68
2021/08/19 00:38:23;;;;;;;14.13;7.55;;;;;;;21.12;62.33;101256.53;4865774;28;124223;-68
2021/08/19 00:40:51;;;;;;;15.55;8.50;;;;;;;21.10;62.49;101255.81;4859101;28;124511;-68
2021/08/19 00:43:19;;;;;;;12.90;8.30;;;;;;;21.09;62.59;101256.78;4850803;28;113135;-68
2021/08/19 00:45:46;;;;;;;13.50;8.52;;;;;;;21.09;62.58;101256.78;4855629;28;113840;-68
2021/08/19 00:48:14;;;;;;;15.48;8.38;;;;;;;21.08;62.52;101249.72;4866993;28;124694;-68
2021/08/19 00:50:43;;;;;;;15.93;8.70;;;;;;;21.07;62.88;101247.97;4868973;28;123536;-68
2021/08/19 00:53:11;;;;;;;14.50;8.50;;;;;;;21.06;62.75;101246.28;4865998;28;115278;-68
2021/08/19 00:55:40;;;;;;;14.20;8.02;;;;;;;21.05;62.75;101249.94;4868495;28;115174;-68
2021/08/19 00:58:07;;;;;;;16.52;8.90;;;;;;;21.02;62.65;101244.84;4870419;28;123839;-68
2021/08/19 01:00:35;;;;;;;15.30;8.90;;;;;;;21.02;62.72;101244.84;4867326;28;124160;-69
2021/08/19 01:03:02;;;;;;;17.02;8.90;;;;;;;21.00;62.77;101242.28;4864649;28;114241;-68
2021/08/19 01:05:31;;;;;;;14.90;8.60;;;;;;;21.01;62.76;101248.50;4867215;28;113746;-68
2021/08/19 01:08:01;;;;;;;14.13;8.57;;;;;;;21.00;62.90;101246.78;4873904;28;124281;-68
2021/08/19 01:10:29;;;;;;;17.38;8.82;;;;;;;21.01;62.92;101248.50;4862710;28;124414;-68
2021/08/19 01:12:56;;;;;;;15.48;8.98;;;;;;;21.00;62.94;101257.53;4852208;28;114235;-68
2021/08/19 01:15:25;;;;;;;16.25;8.25;;;;;;;21.00;62.97;101241.38;4867235;28;113864;-68
2021/08/19 01:17:57;;;;;;;15.43;8.98;;;;;;;20.99;63.10;101245.09;4842429;28;123694;-68
2021/08/19 01:20:29;;;;;;;15.43;9.10;;;;;;;20.97;63.08;101252.44;4863545;28;124342;-68
2021/08/19 01:22:58;;;;;;;15.65;9.13;;;;;;;20.96;62.96;101246.19;4858727;28;114744;-68
2021/08/19 01:25:25;;;;;;;19.75;10.45;;;;;;;20.96;63.04;101256.97;4864772;28;112936;-68
2021/08/19 01:27:54;;;;;;;21.83;11.07;;;;;;;20.96;63.15;101245.31;4865814;28;123179;-69
2021/08/19 01:30:22;;;;;;;17.58;9.70;;;;;;;20.96;63.22;101250.72;4852445;28;124658;-69
2021/08/19 01:32:49;;;;;;;18.65;10.68;;;;;;;20.95;63.21;101257.09;4849893;28;114327;-69
2021/08/19 01:35:22;;;;;;;18.58;10.98;;;;;;;20.95;63.19;101255.25;4866329;28;113903;-68
2021/08/19 01:37:50;;;;;;;18.67;11.43;;;;;;;20.95;63.33;101254.41;4845577;28;125031;-68
2021/08/19 01:40:17;;;;;;;18.30;10.82;;;;;;;20.93;63.26;101257.22;4866962;28;124590;-68
2021/08/19 01:42:44;;;;;;;18.83;10.45;;;;;;;20.94;63.31;101258.06;4866722;28;115252;-69
2021/08/19 01:45:16;;;;;;;18.15;11.50;;;;;;;20.93;63.45;101248.28;4863578;28;114829;-68
2021/08/19 01:47:43;;;;;;;18.42;10.82;;;;;;;20.93;63.37;101245.59;4852453;28;123524;-69
2021/08/19 01:50:11;;;;;;;20.52;11.30;;;;;;;20.92;63.43;101243.88;4864373;28;123808;-69
2021/08/19 01:52:41;;;;;;;20.25;11.75;;;;;;;20.92;63.39;101243.88;4863663;28;115081;-69
2021/08/19 01:55:08;;;;;;;23.05;13.18;;;;;;;20.92;63.30;101246.56;4864051;28;113967;-69
2021/08/19 01:57:35;;;;;;;21.35;12.63;;;;;;;20.92;63.52;101246.56;4872487;28;123710;-69
2021/08/19 02:00:05;;;;;;;22.23;12.90;;;;;;;20.91;63.32;101247.56;4870096;28;123967;-69
2021/08/19 02:02:35;;;;;;;20.13;12.48;;;;;;;20.90;63.50;101245.84;4859638;28;114798;-69
2021/08/19 02:05:03;;;;;;;23.13;13.00;;;;;;;20.89;63.55;101244.13;4865664;28;114288;-69
2021/08/19 02:07:30;;;;;;;24.00;13.30;;;;;;;20.90;63.33;101245.84;4852942;28;122797;-69
2021/08/19 02:09:58;;;;;;;25.13;13.25;;;;;;;20.90;63.61;101240.44;4869096;28;124061;-69
2021/08/19 02:12:25;;;;;;;24.13;14.00;;;;;;;20.91;63.39;101242.19;4850881;28;113852;-69
2021/08/19 02:14:52;;;;;;;23.55;13.57;;;;;;;20.88;63.54;101243.28;4864713;28;114845;-69
2021/08/19 02:17:19;;;;;;;22.10;13.00;;;;;;;20.89;63.53;101241.41;4866544;28;124300;-69
2021/08/19 02:19:47;;;;;;;20.40;12.63;;;;;;;20.87;63.53;101241.56;4864144;28;124693;-69
2021/08/19 02:22:14;;;;;;;24.05;13.88;;;;;;;20.86;63.47;101239.00;4866844;28;114378;-69
2021/08/19 02:24:41;;;;;;;21.92;13.60;;;;;;;20.88;63.54;101247.81;4868620;28;114368;-69
2021/08/19 02:27:08;;;;;;;20.55;13.13;;;;;;;20.87;63.60;101251.47;4860059;28;123091;-69
2021/08/19 02:29:35;;;;;;;25.25;13.50;;;;;;;20.87;63.63;101241.56;4868418;28;124080;-69
2021/08/19 02:32:02;;;;;;;22.52;13.32;;;;;;;20.87;63.60;101235.31;4876487;28;115795;-69
2021/08/19 02:34:29;;;;;;;26.80;13.30;;;;;;;20.87;63.70;101240.69;4871402;28;114851;-69
2021/08/19 02:36:56;;;;;;;21.33;12.68;;;;;;;20.87;63.57;101235.31;4874705;28;124833;-69
2021/08/19 02:39:23;;;;;;;18.92;12.05;;;;;;;20.87;63.68;101241.56;4861911;28;124517;-69
2021/08/19 02:41:51;;;;;;;21.75;12.82;;;;;;;20.88;63.69;101237.03;4868908;28;114618;-69
2021/08/19 02:44:18;;;;;;;22.55;12.40;;;;;;;20.88;63.71;101237.03;4855623;28;113754;-69
2021/08/19 02:46:45;;;;;;;22.58;12.13;;;;;;;20.88;63.55;101226.25;4873408;28;124033;-69
2021/08/19 02:49:12;;;;;;;24.23;12.85;;;;;;;20.88;63.68;101226.25;4874179;28;124113;-69
2021/08/19 02:51:39;;;;;;;19.88;12.43;;;;;;;20.88;63.72;101226.25;4849586;28;114992;-69
2021/08/19 02:54:06;;;;;;;22.98;12.88;;;;;;;20.88;63.65;101226.25;4869133;28;113989;-69
2021/08/19 02:56:35;;;;;;;24.20;12.52;;;;;;;20.88;63.71;101220.88;4865030;28;123830;-69
2021/08/19 02:59:02;;;;;;;22.08;12.68;;;;;;;20.87;63.71;101219.16;4867196;28;124130;-68
2021/08/19 03:01:29;;;;;;;22.95;13.27;;;;;;;20.87;63.62;101224.53;4861991;28;115493;-68
2021/08/19 03:03:57;;;;;;;22.75;12.55;;;;;;;20.87;63.58;101224.53;4848056;28;112739;-68
2021/08/19 03:06:24;;;;;;;24.05;12.98;;;;;;;20.89;63.67;101225.25;4871133;28;124011;-68
2021/08/19 03:08:51;;;;;;;23.60;13.30;;;;;;;20.88;63.55;101220.88;4865444;28;123796;-68
2021/08/19 03:11:18;;;;;;;25.77;13.65;;;;;;;20.88;63.60;101220.88;4868876;28;114440;-68
2021/08/19 03:13:45;;;;;;;24.60;13.93;;;;;;;20.88;63.76;101226.25;4866875;28;114194;-68
2021/08/19 03:16:12;;;;;;;21.85;13.75;;;;;;;20.88;63.50;101218.19;4873414;28;123386;-68
2021/08/19 03:18:39;;;;;;;26.42;13.88;;;;;;;20.87;63.56;101213.78;4860416;28;123712;-68
2021/08/19 03:21:06;;;;;;;26.58;13.63;;;;;;;20.86;63.50;101212.06;4872050;28;115241;-68
2021/08/19 03:23:34;;;;;;;27.30;14.00;;;;;;;20.84;63.57;101214.03;4862767;28;115291;-68
2021/08/19 03:26:01;;;;;;;25.55;13.90;;;;;;;20.84;63.63;101211.34;4867322;28;124771;-68
2021/08/19 03:28:28;;;;;;;26.98;13.63;;;;;;;20.82;63.70;101218.69;4871366;28;123987;-68
2021/08/19 03:30:55;;;;;;;28.70;14.20;;;;;;;20.81;63.58;101215.13;4870238;28;114376;-68
2021/08/19 03:33:22;;;;;;;25.73;14.15;;;;;;;20.80;63.71;101219.66;4864856;28;115222;-68
2021/08/19 03:35:51;;;;;;;28.48;14.40;;;;;;;20.80;63.75;101218.81;4866885;28;124312;-68
2021/08/19 03:38:18;;;;;;;27.83;13.68;;;;;;;20.80;63.67;101213.44;4869652;28;123881;-68
2021/08/19 03:40:45;;;;;;;29.38;14.95;;;;;;;20.80;63.74;101214.28;4868910;28;114292;-69
2021/08/19 03:43:12;;;;;;;26.58;14.68;;;;;;;20.79;63.62;101212.59;4866124;28;113774;-69
2021/08/19 03:45:39;;;;;;;27.80;15.52;;;;;;;20.77;63.72;101206.44;4865261;28;124097;-68
2021/08/19 03:48:06;;;;;;;28.73;15.48;;;;;;;20.77;63.80;101203.75;4849427;28;123991;-69
2021/08/19 03:50:34;;;;;;;26.60;15.43;;;;;;;20.76;63.61;101204.75;4867479;28;114040;-69
2021/08/19 03:53:01;;;;;;;27.23;14.68;;;;;;;20.75;63.56;101211.09;4871075;28;114535;-69
2021/08/19 03:55:29;;;;;;;25.83;15.18;;;;;;;20.75;63.69;101216.50;4867881;28;123894;-69
2021/08/19 03:57:56;;;;;;;26.95;14.77;;;;;;;20.75;63.54;101210.25;4871440;28;124538;-70
2021/08/19 04:00:23;;;;;;;27.85;14.95;;;;;;;20.74;63.53;101209.41;4874245;28;114156;-69
2021/08/19 04:02:50;;;;;;;28.80;15.55;;;;;;;20.73;63.72;101213.06;4866998;28;114706;-69
2021/08/19 04:05:18;;;;;;;27.10;15.05;;;;;;;20.72;63.58;101210.50;4863470;28;124055;-69
2021/08/19 04:07:45;;;;;;;26.73;15.50;;;;;;;20.71;63.56;101220.44;4868607;28;124175;-69
2021/08/19 04:10:13;;;;;;;30.73;14.90;;;;;;;20.70;63.60;101218.72;4854227;28;114392;-69
2021/08/19 04:12:41;;;;;;;29.35;15.32;;;;;;;20.70;63.69;101218.72;4865519;28;114378;-69
2021/08/19 04:15:09;;;;;;;27.27;15.10;;;;;;;20.68;63.64;101215.31;4853221;28;123652;-69
2021/08/19 04:17:37;;;;;;;28.27;15.95;;;;;;;20.68;63.72;101220.69;4864935;28;124978;-69
2021/08/19 04:20:06;;;;;;;29.30;15.40;;;;;;;20.67;63.57;101220.81;4848011;28;113607;-69
2021/08/19 04:22:34;;;;;;;27.60;15.05;;;;;;;20.66;63.67;101222.63;4866898;28;113976;-69
2021/08/19 04:25:02;;;;;;;28.38;15.98;;;;;;;20.65;63.66;101220.94;4852973;28;124709;-69
2021/08/19 04:27:29;;;;;;;31.33;15.45;;;;;;;20.64;63.53;101219.22;4868647;28;123906;-69
2021/08/19 04:29:56;;;;;;;29.15;15.35;;;;;;;20.63;63.61;101222.06;4859598;28;114198;-69
2021/08/19 04:32:23;;;;;;;27.02;15.73;;;;;;;20.60;63.57;101223.97;4870934;28;114329;-69
2021/08/19 04:34:51;;;;;;;27.58;15.52;;;;;;;20.63;63.59;101222.06;4872624;28;124357;-69
2021/08/19 04:37:18;;;;;;;29.38;15.80;;;;;;;20.60;63.70;101217.75;4874299;28;123922;-69
2021/08/19 04:39:45;;;;;;;26.08;15.38;;;;;;;20.60;63.74;101220.44;4872429;28;114653;-69
2021/08/19 04:42:13;;;;;;;28.60;15.35;;;;;;;20.61;63.58;101211.41;4870556;28;114643;-68
2021/08/19 04:44:40;;;;;;;31.50;16.13;;;;;;;20.59;63.76;101221.41;4848495;28;123032;-68
2021/08/19 04:47:07;;;;;;;29.70;15.75;;;;;;;20.60;63.77;101223.13;4868718;28;123761;-68
2021/08/19 04:49:35;;;;;;;25.77;14.57;;;;;;;20.60;63.75;101217.75;4858530;28;114424;-68
2021/08/19 04:52:03;;;;;;;27.75;15.63;;;;;;;20.61;63.63;101228.41;4856094;28;112984;-67
2021/08/19 04:54:30;;;;;;;24.58;14.90;;;;;;;20.61;63.62;101224.88;4869614;28;124104;-68
2021/08/19 04:56:57;;;;;;;26.05;15.43;;;;;;;20.61;63.62;101224.88;4853521;28;123347;-67
2021/08/19 04:59:24;;;;;;;25.13;14.38;;;;;;;20.61;63.61;101224.88;4866900;28;115683;-68
2021/08/19 05:01:51;;;;;;;28.85;15.68;;;;;;;20.59;63.64;101221.41;4859049;28;114551;-68
2021/08/19 05:04:22;;;;;;;29.85;14.82;;;;;;;20.59;63.53;101226.78;4866694;28;124099;-68
2021/08/19 05:06:50;;;;;;;28.65;15.27;;;;;;;20.57;63.74;101218.00;4868910;28;123976;-68
2021/08/19 05:09:17;;;;;;;29.05;15.32;;;;;;;20.58;63.69;101219.69;4866893;28;114563;-68
2021/08/19 05:11:44;;;;;;;26.73;15.52;;;;;;;20.58;63.62;101222.38;4868932;28;114320;-68
2021/08/19 05:14:11;;;;;;;27.23;15.32;;;;;;;20.56;63.56;101221.66;4853578;28;123004;-68
2021/08/19 05:16:38;;;;;;;27.73;15.30;;;;;;;20.56;63.71;101216.28;4873789;28;123651;-68
2021/08/19 05:19:06;;;;;;;28.55;16.63;;;;;;;20.56;63.58;101227.03;4858215;28;113051;-68
2021/08/19 05:21:33;;;;;;;27.80;16.02;;;;;;;20.56;63.68;101227.03;4868825;28;114402;-68
2021/08/19 05:24:00;;;;;;;26.83;16.02;;;;;;;20.58;63.80;101225.06;4859778;28;124411;-68
2021/08/19 05:26:27;;;;;;;32.30;16.75;;;;;;;20.58;63.67;101230.44;4872013;28;124272;-68
2021/08/19 05:28:54;;;;;;;28.95;16.02;;;;;;;20.58;63.60;101231.28;4853469;28;113971;-68
2021/08/19 05:31:21;;;;;;;29.70;15.95;;;;;;;20.61;63.79;101241.00;4866564;28;114232;-68
2021/08/19 05:33:49;;;;;;;30.42;15.93;;;;;;;20.63;63.68;101243.59;4841848;29;123974;-68
2021/08/19 05:36:16;;;;;;;28.65;15.88;;;;;;;20.63;63.56;101244.44;4867424;28;123930;-68
2021/08/19 05:38:43;;;;;;;32.35;16.35;;;;;;;20.64;63.67;101250.66;4868947;28;114986;-68
2021/08/19 05:41:11;;;;;;;27.63;15.52;;;;;;;20.63;63.72;101247.13;4851931;28;113269;-68
2021/08/19 05:43:38;;;;;;;31.40;16.42;;;;;;;20.65;63.64;101247.00;4850526;28;123248;-68
2021/08/19 05:46:07;;;;;;;26.85;15.52;;;;;;;20.67;63.83;101245.88;4869641;28;124444;-68
2021/08/19 05:48:34;;;;;;;29.98;15.80;;;;;;;20.67;63.57;101248.56;4860436;28;116398;-68
2021/08/19 05:51:01;;;;;;;32.03;16.85;;;;;;;20.69;63.87;101254.69;4864897;28;114842;-68
2021/08/19 05:53:29;;;;;;;28.60;15.48;;;;;;;20.72;63.69;101254.44;4855111;28;123158;-68
2021/08/19 05:55:56;;;;;;;27.27;15.38;;;;;;;20.74;63.87;101257.88;4858986;28;123943;-68
2021/08/19 05:58:23;;;;;;;26.27;15.88;;;;;;;20.76;63.65;101261.28;4857071;28;113989;-68
2021/08/19 06:00:50;;;;;;;30.83;16.55;;;;;;;20.77;63.44;101257.59;4853003;28;113067;-68
2021/08/19 06:03:22;;;;;;;29.83;16.08;;;;;;;20.78;63.61;101253.94;4860627;28;124182;-67
2021/08/19 06:05:49;;;;;;;26.50;15.40;;;;;;;20.80;63.55;101257.38;4869757;28;124304;-68
2021/08/19 06:08:17;;;;;;;29.45;15.60;;;;;;;20.82;63.41;101253.72;4863143;28;114110;-68
2021/08/19 06:10:45;;;;;;;32.47;16.58;;;;;;;20.82;63.68;101259.09;4865613;28;114608;-68
2021/08/19 06:13:13;;;;;;;26.55;15.35;;;;;;;20.84;63.62;101262.50;4868457;28;123898;-68
2021/08/19 06:15:40;;;;;;;28.70;16.13;;;;;;;20.85;63.56;101264.19;4872155;28;123818;-68
2021/08/19 06:18:07;;;;;;;29.80;16.73;;;;;;;20.84;63.58;101262.50;4870695;28;114149;-68
2021/08/19 06:20:35;;;;;;;33.05;16.42;;;;;;;20.85;63.65;101253.44;4865767;28;113892;-68
2021/08/19 06:23:02;;;;;;;32.78;16.20;;;;;;;20.86;63.45;101255.16;4866258;28;124248;-68
2021/08/19 06:25:32;;;;;;;28.13;16.05;;;;;;;20.88;63.53;101263.97;4872945;28;124016;-68
2021/08/19 06:28:00;;;;;;;30.63;16.38;;;;;;;20.88;63.50;101264.81;4857469;28;114609;-68
2021/08/19 06:30:27;;;;;;;30.92;16.55;;;;;;;20.88;63.54;101258.56;4872164;28;113883;-69
2021/08/19 06:32:54;;;;;;;29.33;15.90;;;;;;;20.88;63.41;101255.88;4854684;28;123052;-68
2021/08/19 06:35:22;;;;;;;32.00;16.75;;;;;;;20.88;63.39;101263.97;4864199;28;123759;-68
2021/08/19 06:37:49;;;;;;;34.75;17.15;;;;;;;20.88;63.55;101263.97;4861361;28;115584;-68
2021/08/19 06:40:16;;;;;;;30.65;17.10;;;;;;;20.89;63.58;101271.03;4850584;28;114830;-68
2021/08/19 06:42:44;;;;;;;32.55;16.95;;;;;;;20.92;63.49;101270.81;4851440;28;123184;-68
2021/08/19 06:45:12;;;;;;;33.78;17.35;;;;;;;20.93;63.31;101269.84;4874502;28;123072;-68
2021/08/19 06:47:40;;;;;;;33.85;18.10;;;;;;;20.94;63.38;101274.22;4870364;28;114396;-68
2021/08/19 06:50:07;;;;;;;31.58;17.40;;;;;;;20.95;63.49;101271.41;4872717;28;114098;-68
2021/08/19 06:52:40;;;;;;;34.80;17.63;;;;;;;20.95;63.48;101265.19;4857503;28;123905;-68
2021/08/19 06:55:08;;;;;;;32.88;18.02;;;;;;;20.97;63.34;101271.28;4870361;28;123862;-68
2021/08/19 06:57:36;;;;;;;31.30;17.63;;;;;;;20.98;63.44;101270.28;4873253;28;114013;-68
2021/08/19 07:00:05;;;;;;;33.42;17.38;;;;;;;21.00;63.49;101273.72;4871148;28;114141;-68
2021/08/19 07:02:32;;;;;;;30.73;17.77;;;;;;;21.02;63.35;101273.59;4861211;28;124051;-67
2021/08/19 07:05:00;;;;;;;31.85;17.70;;;;;;;21.03;63.35;101268.06;4873037;28;124613;-69
2021/08/19 07:07:31;;;;;;;31.42;17.70;;;;;;;21.04;63.32;101267.13;4860887;28;114576;-69
2021/08/19 07:10:07;;;;;;;33.85;17.70;;;;;;;21.04;63.27;101274.31;4846443;28;113345;-69
2021/08/19 07:12:36;;;;;;;30.48;17.30;;;;;;;21.03;63.41;101273.47;4876693;28;124088;-69
2021/08/19 07:15:04;;;;;;;29.42;16.98;;;;;;;21.04;63.29;101275.19;4859906;28;122663;-69
2021/08/19 07:17:32;;;;;;;31.50;16.85;;;;;;;21.04;63.35;101275.19;4872483;28;114313;-69
2021/08/19 07:20:00;;;;;;;30.90;16.92;;;;;;;21.04;63.27;101272.50;4861322;28;114749;-69
2021/08/19 07:22:33;;;;;;;30.63;16.93;;;;;;;21.04;63.26;101275.19;4856888;28;125608;-69
2021/08/19 07:25:00;;;;;;;33.60;16.05;;;;;;;21.05;63.32;101274.19;4861611;28;123915;-69
2021/08/19 07:27:28;;;;;;;30.75;17.67;;;;;;;21.05;63.15;101276.03;4857578;28;114819;-69
2021/08/19 07:29:55;;;;;;;31.60;17.35;;;;;;;21.06;63.31;101275.03;4867093;28;114989;-69
2021/08/19 07:32:22;;;;;;;28.80;17.00;;;;;;;21.06;63.22;101281.31;4857253;28;124493;-68
2021/08/19 07:34:49;;;;;;;32.65;17.58;;;;;;;21.07;63.20;101279.47;4863663;28;124124;-69
2021/08/19 07:37:16;;;;;;;32.38;18.33;;;;;;;21.05;63.21;101276.88;4861884;28;114279;-69
2021/08/19 07:39:43;;;;;;;30.05;17.45;;;;;;;21.06;63.28;101284.00;4869145;28;114372;-69
2021/08/19 07:42:11;;;;;;;29.33;17.00;;;;;;;21.07;63.13;101291.06;4864450;28;123952;-69
2021/08/19 07:44:38;;;;;;;32.17;17.00;;;;;;;21.06;63.21;101286.69;4867378;28;123922;-68
2021/08/19 07:47:05;;;;;;;32.47;17.75;;;;;;;21.08;63.29;101287.41;4866430;28;114256;-68
2021/08/19 07:49:32;;;;;;;30.02;16.83;;;;;;;21.10;63.23;101288.16;4867175;28;114815;-69
2021/08/19 07:52:00;;;;;;;29.83;17.00;;;;;;;21.12;63.21;101288.88;4874284;28;124115;-69
2021/08/19 07:54:28;;;;;;;27.40;15.82;;;;;;;21.14;63.24;101286.91;4874352;28;123778;-69
2021/08/19 07:56:55;;;;;;;29.25;16.23;;;;;;;21.15;63.32;101283.25;4872699;28;114455;-69
2021/08/19 07:59:22;;;;;;;28.95;16.70;;;;;;;21.17;63.23;101292.03;4865491;28;113906;-69
2021/08/19 08:01:53;;;;;;;28.20;16.35;;;;;;;21.19;63.33;101290.06;4869999;28;123842;-69
2021/08/19 08:04:21;;;;;;;27.45;16.10;;;;;;;21.19;63.17;101300.84;4856417;28;123593;-69
2021/08/19 08:06:48;;;;;;;25.98;15.95;;;;;;;21.20;63.21;101291.78;4865331;28;114867;-69
2021/08/19 08:09:16;;;;;;;25.80;16.45;;;;;;;21.22;63.21;101294.34;4871738;28;113847;-69
2021/08/19 08:11:43;;;;;;;25.85;15.45;;;;;;;21.24;63.15;101292.38;4871867;28;124113;-69
2021/08/19 08:14:10;;;;;;;26.75;16.08;;;;;;;21.25;63.04;101293.22;4874069;28;124420;-69
2021/08/19 08:16:37;;;;;;;27.05;16.52;;;;;;;21.25;63.19;101304.00;4877169;28;115691;-69
2021/08/19 08:19:04;;;;;;;25.70;15.60;;;;;;;21.24;63.13;101291.53;4868628;28;115338;-69
2021/08/19 08:21:32;;;;;;;27.75;15.85;;;;;;;21.24;63.23;101302.31;4869017;23;123855;-65
2021/08/19 08:24:00;;;;;;;26.95;15.52;;;;;;;21.25;63.15;101306.69;4829399;29;123785;-65
2021/08/19 08:26:27;;;;;;;27.15;15.50;;;;;;;21.24;63.28;101302.31;4829646;29;114277;-66
2021/08/19 08:28:57;;;;;;;25.02;15.70;;;;;;;21.26;63.18;101301.19;4833806;29;114194;-66
2021/08/19 08:31:24;;;;;;;25.65;15.45;;;;;;;21.28;63.15;101303.75;4831411;29;124416;-66
2021/08/19 08:33:51;;;;;;;25.10;15.93;;;;;;;21.29;63.17;101295.56;4832593;29;124103;-66
2021/08/19 08:36:19;;;;;;;27.05;16.77;;;;;;;21.33;63.17;101301.53;4820893;29;114052;-65
2021/08/19 08:38:46;;;;;;;26.70;16.48;;;;;;;21.35;63.25;101302.28;4834012;29;114453;-66
2021/08/19 08:41:13;;;;;;;28.58;15.65;;;;;;;21.37;63.26;101309.22;4827622;29;123410;-65
2021/08/19 08:43:41;;;;;;;25.70;15.82;;;;;;;21.40;63.23;101302.75;4828336;29;123771;-65
2021/08/19 08:46:10;;;;;;;25.48;15.77;;;;;;;21.40;63.08;101308.13;4812459;29;114150;-65
2021/08/19 08:48:42;;;;;;;26.70;16.45;;;;;;;21.41;62.98;101312.53;4824948;29;114271;-65
2021/08/19 08:51:10;;;;;;;27.77;15.77;;;;;;;21.42;63.12;101311.56;4828315;29;125549;-65
2021/08/19 08:53:39;;;;;;;24.02;15.52;;;;;;;21.44;63.05;101320.41;4828768;29;124669;-65
2021/08/19 08:56:21;;;;;;;24.23;15.13;;;;;;;21.47;63.00;101322.81;4828513;29;114147;-65
2021/08/19 08:58:48;;;;;;;27.33;15.48;;;;;;;21.49;62.97;101323.56;4809988;29;114417;-65
2021/08/19 09:01:15;;;;;;;23.55;14.32;;;;;;;21.52;62.97;101322.44;4822890;29;123931;-65
2021/08/19 09:03:43;;;;;;;25.58;14.45;;;;;;;21.53;62.83;101319.63;4826673;29;123838;-65
2021/08/19 09:06:10;;;;;;;24.95;15.10;;;;;;;21.57;62.89;101328.31;4827598;29;115317;-65
2021/08/19 09:08:50;;;;;;;23.85;14.10;;;;;;;21.62;62.81;101327.91;4821556;29;115192;-65
2021/08/19 09:11:17;;;;;;;22.52;14.18;;;;;;;21.63;62.61;101330.50;4809719;29;123211;-65
2021/08/19 09:13:44;;;;;;;22.92;14.07;;;;;;;21.65;62.55;101330.38;4822230;29;123965;-65
2021/08/19 09:16:14;;;;;;;22.85;14.10;;;;;;;21.65;62.47;101327.66;4824708;29;114790;-65
2021/08/19 09:18:42;;;;;;;23.48;14.88;;;;;;;21.65;62.34;101333.06;4822814;29;114271;-65
2021/08/19 09:21:21;;;;;;;24.92;14.45;;;;;;;21.62;62.35;101333.31;4820793;29;124993;-65
2021/08/19 09:24:10;;;;;;;22.02;14.27;;;;;;;21.62;62.50;101338.69;4809818;29;123740;-65
2021/08/19 09:26:37;;;;;;;20.83;14.27;;;;;;;21.63;62.44;101335.03;4827295;29;114600;-65
2021/08/19 09:29:24;;;;;;;24.10;15.52;;;;;;;21.64;62.47;101342.13;4825938;29;114113;-65
2021/08/19 09:31:55;;;;;;;24.33;14.52;;;;;;;21.64;62.41;101342.13;4826849;29;123589;-65
2021/08/19 09:34:23;;;;;;;20.85;14.48;;;;;;;21.62;62.35;101341.41;4812333;29;123445;-65
2021/08/19 09:37:01;;;;;;;20.48;13.77;;;;;;;21.61;62.35;101343.25;4830402;29;114897;-65
2021/08/19 09:39:36;;;;;;;24.95;15.18;;;;;;;21.62;62.57;101344.09;4835489;29;114092;-65
2021/08/19 09:42:04;;;;;;;22.65;14.38;;;;;;;21.63;62.23;101352.06;4835385;29;123984;-65
2021/08/19 09:44:34;;;;;;;22.45;14.52;;;;;;;21.63;62.15;101345.81;4817999;29;124410;-65
2021/08/19 09:47:04;;;;;;;21.95;14.30;;;;;;;21.63;62.32;101345.81;4822236;29;113419;-65
2021/08/19 09:49:35;;;;;;;22.70;14.50;;;;;;;21.64;62.43;101347.50;4828404;29;114376;-65
2021/08/19 09:52:11;;;;;;;21.30;14.50;;;;;;;21.67;62.19;101347.25;4830811;29;123380;-65
2021/08/19 09:54:40;;;;;;;24.95;14.23;;;;;;;21.69;61.97;101350.69;4812585;29;122982;-65
2021/08/19 09:57:09;;;;;;;22.67;14.57;;;;;;;21.68;62.04;101339.06;4825889;29;116061;-64
2021/08/19 09:59:40;;;;;;;24.30;15.45;;;;;;;21.66;61.94;101340.16;4823813;29;114803;-65
2021/08/19 10:02:09;;;;;;;22.20;15.00;;;;;;;21.68;62.08;101348.97;4811177;29;123030;-65
2021/08/19 10:04:36;;;;;;;26.85;15.82;;;;;;;21.71;62.18;101343.31;4828511;29;124361;-65
2021/08/19 10:07:04;;;;;;;25.08;15.77;;;;;;;21.74;62.23;101343.06;4833892;29;114425;-65
2021/08/19 10:09:31;;;;;;;23.02;15.38;;;;;;;21.79;62.39;101335.44;4822957;29;114244;-65
2021/08/19 10:11:59;;;;;;;20.58;14.82;;;;;;;21.84;62.37;101338.59;4830781;29;123914;-65
2021/08/19 10:14:29;;;;;;;23.73;15.30;;;;;;;21.86;62.12;101338.47;4814373;29;122664;-65
2021/08/19 10:16:56;;;;;;;24.67;15.10;;;;;;;21.89;62.16;101341.75;4829616;29;114436;-65
2021/08/19 10:19:41;;;;;;;24.05;15.02;;;;;;;21.88;62.21;101340.03;4819852;29;114153;-65
2021/08/19 10:22:16;;;;;;;24.00;16.02;;;;;;;21.87;62.13;101343.75;4820419;29;124921;-65
2021/08/19 10:24:51;;;;;;;;;;;;;;;21.85;62.06;101343.03;4802847;29;123052;-65
2021/08/19 10:27:24;;;;;;;22.48;14.63;;;;;;;21.83;62.09;101345.00;4825872;29;114676;-66
2021/08/19 10:29:59;;;;;;;21.60;14.15;;;;;;;21.81;62.18;101341.53;4820956;29;114383;-65
2021/08/19 10:32:37;;;;;;;23.63;15.68;;;;;;;21.78;62.29;101355.31;4829010;29;124099;-65
2021/08/19 10:35:09;;;;;;;25.35;15.73;;;;;;;21.75;62.40;101345.63;4812215;29;122746;-65
2021/08/19 10:37:46;;;;;;;25.98;17.38;;;;;;;21.74;62.43;101343.06;4811112;29;114270;-66
2021/08/19 10:40:19;;;;;;;25.90;17.58;;;;;;;21.72;62.28;101340.50;4828627;29;113823;-65
2021/08/19 10:42:52;;;;;;;25.15;17.08;;;;;;;21.69;62.38;101339.91;4828850;29;124214;-65
2021/08/19 10:45:26;;;;;;;28.38;18.27;;;;;;;21.68;62.60;101338.16;4834089;29;124628;-65
2021/08/19 10:48:15;;;;;;;26.75;18.73;;;;;;;21.70;62.69;101347.00;4832763;29;115095;-65
2021/08/19 10:50:44;;;;;;;30.38;19.30;;;;;;;21.70;62.48;101341.59;4837499;29;115486;-65
2021/08/19 10:53:21;;;;;;;28.98;19.00;;;;;;;21.70;62.65;101336.19;4828917;29;123947;-65
2021/08/19 10:55:52;;;;;;;28.58;18.67;;;;;;;21.70;62.67;101336.19;4821671;29;123882;-65
2021/08/19 10:58:29;;;;;;;28.05;18.08;;;;;;;21.70;62.64;101330.81;4836813;29;114658;-65
2021/08/19 11:01:17;;;;;;;23.92;17.10;;;;;;;21.69;62.65;101345.28;4835278;29;113824;-65
2021/08/19 11:03:49;;;;;;;26.70;17.83;;;;;;;21.66;62.52;101342.84;4818801;29;124308;-65
2021/08/19 11:06:22;;;;;;;26.70;18.02;;;;;;;21.60;62.49;101346.91;4820559;29;124773;-65
2021/08/19 11:08:51;;;;;;;26.63;17.60;;;;;;;21.53;62.56;101351.97;4835887;29;114751;-65